Time;durP1;ratioP1;P1;durP2;ratioP2;P2;SDS_P1;SDS_P2;PMS_P1;PMS_P2;Temp;Humidity;BMP_temperature;BMP_pressure;BME280_temperature;BME280_humidity;BME280_pressure;Samples;Min_cycle;Max_cycle;Signal;HPM_P1;HPM_P2
2022/10/08 00:01:08;;;;;;;35.80;16.85;;;;;;;4.15;100.00;100492.48;1707639;83;21464;-71
2022/10/08 00:03:42;;;;;;;35.17;16.15;;;;;;;4.13;100.00;100488.66;1696673;84;21523;-71
2022/10/08 00:06:15;;;;;;;32.00;16.25;;;;;;;4.11;100.00;100484.54;1696811;84;21487;-71
2022/10/08 00:08:46;;;;;;;31.68;16.85;;;;;;;4.10;100.00;100488.33;1697029;84;20893;-71
2022/10/08 00:11:17;;;;;;;35.60;15.83;;;;;;;4.08;100.00;100480.42;1696902;84;21139;-71
2022/10/08 00:13:45;;;;;;;41.55;17.23;;;;;;;4.07;100.00;100479.31;1696791;84;20889;-72
2022/10/08 00:16:15;;;;;;;35.83;17.87;;;;;;;4.05;100.00;100476.03;1696764;84;21439;-72
2022/10/08 00:18:44;;;;;;;35.90;17.85;;;;;;;4.03;100.00;100471.41;1697139;84;20901;-72
2022/10/08 00:21:15;;;;;;;39.73;18.23;;;;;;;4.02;100.00;100471.13;1696902;84;20896;-71
2022/10/08 00:23:43;;;;;;;38.50;18.45;;;;;;;3.97;100.00;100466.44;1696946;84;21774;-71
2022/10/08 00:26:10;;;;;;;38.15;18.95;;;;;;;3.95;100.00;100463.15;1696696;84;20928;-71
2022/10/08 00:28:40;;;;;;;39.20;19.87;;;;;;;3.95;100.00;100463.15;1696955;84;21048;-71
2022/10/08 00:31:09;;;;;;;37.00;19.92;;;;;;;3.94;100.00;100461.50;1697002;84;21499;-71
2022/10/08 00:33:37;;;;;;;42.95;19.70;;;;;;;3.92;100.00;100456.86;1696839;84;20952;-71
2022/10/08 00:36:07;;;;;;;37.65;19.73;;;;;;;3.88;100.00;100440.77;1696817;84;21140;-71
2022/10/08 00:38:35;;;;;;;41.98;19.50;;;;;;;3.87;100.00;100436.41;1696715;84;20905;-71
2022/10/08 00:41:04;;;;;;;41.70;16.87;;;;;;;3.87;100.00;100436.41;1696850;84;20936;-71
2022/10/08 00:43:43;;;;;;;35.28;18.00;;;;;;;3.87;100.00;100435.05;1696746;84;20945;-72
2022/10/08 00:46:35;;;;;;;35.90;17.35;;;;;;;3.86;100.00;100430.69;1676580;84;21499;-73
2022/10/08 00:49:15;;;;;;;38.08;17.95;;;;;;;3.86;100.00;100430.69;1696854;83;21169;-71
2022/10/08 00:51:48;;;;;;;34.23;16.02;;;;;;;3.83;100.00;100423.86;1696740;83;20853;-71
2022/10/08 00:54:18;;;;;;;34.25;15.53;;;;;;;3.81;100.00;100427.36;1697981;84;21500;-71
2022/10/08 00:56:50;;;;;;;35.73;15.25;;;;;;;3.75;100.00;100424.28;1699384;83;21530;-70
2022/10/08 00:59:17;;;;;;;31.07;15.83;;;;;;;3.72;100.00;100427.50;1701370;84;26398;-70
2022/10/08 01:01:45;;;;;;;33.83;15.08;;;;;;;3.68;100.00;100427.71;1700728;84;20932;-72
2022/10/08 01:04:12;;;;;;;29.48;14.15;;;;;;;3.61;100.00;100422.45;1700771;84;20897;-71
2022/10/08 01:06:48;;;;;;;30.90;14.40;;;;;;;3.61;100.00;100422.45;1702468;84;20912;-71
2022/10/08 01:09:39;;;;;;;36.23;14.43;;;;;;;3.56;100.00;100421.55;1698692;84;20983;-72
2022/10/08 01:12:30;;;;;;;29.92;14.63;;;;;;;3.56;100.00;100421.55;1680194;84;20912;-71
2022/10/08 01:15:00;;;;;;;26.10;13.80;;;;;;;3.54;100.00;100423.69;1706044;84;21261;-71
2022/10/08 01:17:37;;;;;;;28.93;13.67;;;;;;;3.48;100.00;100423.33;1689548;84;20996;-71
2022/10/08 01:20:30;;;;;;;31.35;13.30;;;;;;;3.48;100.00;100423.33;1688140;84;21651;-71
2022/10/08 01:23:29;;;;;;;26.33;12.00;;;;;;;3.46;100.00;100422.25;1693418;84;20945;-70
2022/10/08 01:26:27;;;;;;;26.25;12.75;;;;;;;3.45;100.00;100427.39;1696349;84;21048;-71
2022/10/08 01:29:02;;;;;;;31.82;13.40;;;;;;;3.42;100.00;100425.16;1696331;84;21778;-71
2022/10/08 01:31:31;;;;;;;30.57;13.28;;;;;;;3.40;100.00;100425.12;1695147;84;20995;-71
2022/10/08 01:34:09;;;;;;;33.23;12.68;;;;;;;3.38;100.00;100425.91;1695470;84;20976;-71
2022/10/08 01:36:44;;;;;;;23.35;12.03;;;;;;;3.34;100.00;100427.47;1691133;84;21514;-72
2022/10/08 01:39:15;;;;;;;24.32;11.45;;;;;;;3.30;100.00;100426.61;1685678;85;21035;-73
2022/10/08 01:41:48;;;;;;;24.32;12.68;;;;;;;3.30;100.00;100430.67;1689555;84;21597;-73
2022/10/08 01:44:32;;;;;;;22.62;11.10;;;;;;;3.28;100.00;100427.92;1685445;84;21107;-73
2022/10/08 01:47:04;;;;;;;25.30;11.25;;;;;;;3.26;100.00;100420.56;1685950;85;20912;-73
2022/10/08 01:49:35;;;;;;;19.10;10.32;;;;;;;3.25;100.00;100424.34;1698294;84;20928;-72
2022/10/08 01:52:13;;;;;;;19.07;9.33;;;;;;;3.24;100.00;100426.77;1700736;84;21476;-73
2022/10/08 01:54:40;;;;;;;20.62;10.13;;;;;;;3.24;100.00;100425.41;1699111;84;21099;-73
2022/10/08 01:57:09;;;;;;;23.12;9.08;;;;;;;3.23;100.00;100424.59;1699321;84;20909;-73
2022/10/08 01:59:49;;;;;;;18.17;9.55;;;;;;;3.23;100.00;100424.59;1699251;84;21016;-73
2022/10/08 02:02:21;;;;;;;24.23;9.40;;;;;;;3.24;100.00;100425.41;1699289;84;20976;-73
2022/10/08 02:04:50;;;;;;;;;;;;;;;3.22;100.00;100420.76;1703141;84;20956;-73
2022/10/08 02:07:23;;;;;;;17.67;7.95;;;;;;;3.20;100.00;100429.14;1700833;84;21187;-73
2022/10/08 02:09:55;;;;;;;14.60;7.90;;;;;;;3.19;100.00;100430.75;1665975;86;20948;-73
2022/10/08 02:12:24;;;;;;;17.02;8.18;;;;;;;3.16;100.00;100428.52;1698659;84;20960;-73
2022/10/08 02:14:54;;;;;;;13.68;7.15;;;;;;;3.15;100.00;100437.20;1700778;84;20941;-73
2022/10/08 02:17:40;;;;;;;13.70;6.42;;;;;;;3.12;100.00;100429.55;1700846;84;20952;-73
2022/10/08 02:20:21;;;;;;;15.15;7.92;;;;;;;3.11;100.00;100431.15;1700805;84;21172;-73
2022/10/08 02:22:59;;;;;;;15.72;7.33;;;;;;;3.09;100.00;100428.68;1620981;85;21038;-73
2022/10/08 02:25:34;;;;;;;21.10;7.53;;;;;;;3.08;100.00;100427.03;1670007;85;21026;-73
2022/10/08 02:28:10;;;;;;;16.23;8.15;;;;;;;3.06;100.00;100424.28;1672133;85;20988;-73
2022/10/08 02:31:06;;;;;;;14.78;7.85;;;;;;;3.04;100.00;100425.06;1672107;85;20935;-73
2022/10/08 02:34:06;;;;;;;16.15;7.03;;;;;;;3.03;100.00;100426.13;1672000;85;21267;-73
2022/10/08 02:36:39;;;;;;;12.10;7.30;;;;;;;3.01;100.00;100422.30;1672425;85;20987;-73
2022/10/08 02:39:07;;;;;;;19.82;8.03;;;;;;;3.01;100.00;100430.44;1672651;85;20912;-72
2022/10/08 02:41:38;;;;;;;14.78;7.30;;;;;;;2.99;100.00;100420.36;1648135;85;20916;-72
2022/10/08 02:44:08;;;;;;;14.15;7.33;;;;;;;2.99;100.00;100424.44;1672626;85;21026;-72
2022/10/08 02:46:39;;;;;;;16.52;6.97;;;;;;;2.97;100.00;100425.21;1672567;85;21293;-73
2022/10/08 02:49:17;;;;;;;17.02;8.08;;;;;;;2.96;100.00;100412.72;1653074;85;21075;-73
2022/10/08 02:51:48;;;;;;;13.53;7.10;;;;;;;2.96;100.00;100422.21;1672588;85;21621;-73
2022/10/08 02:54:16;;;;;;;18.70;7.83;;;;;;;2.95;100.00;100420.56;1672527;85;21459;-71
2022/10/08 02:56:47;;;;;;;17.35;7.40;;;;;;;2.95;100.00;100421.92;1672590;85;20864;-71
2022/10/08 02:59:14;;;;;;;16.52;7.78;;;;;;;2.92;100.00;100419.16;1672544;85;21137;-72
2022/10/08 03:01:47;;;;;;;16.45;8.03;;;;;;;2.89;100.00;100420.19;1672368;85;20864;-71
2022/10/08 03:04:28;;;;;;;15.87;7.60;;;;;;;2.86;100.00;100422.06;1673192;85;21007;-72
2022/10/08 03:06:55;;;;;;;30.37;7.10;;;;;;;2.83;100.00;100423.37;1672567;85;20975;-73
2022/10/08 03:09:23;;;;;;;17.27;7.67;;;;;;;2.82;100.00;100420.90;1649017;84;20921;-73
2022/10/08 03:11:50;;;;;;;17.77;7.72;;;;;;;2.80;100.00;100421.67;1699364;84;21946;-73
2022/10/08 03:14:19;;;;;;;17.27;7.58;;;;;;;2.80;100.00;100418.96;1699162;84;20940;-74
2022/10/08 03:16:46;;;;;;;19.55;8.75;;;;;;;2.78;100.00;100416.49;1699143;84;21031;-72
2022/10/08 03:19:15;;;;;;;16.85;8.00;;;;;;;2.76;100.00;100414.56;1699148;84;20869;-72
2022/10/08 03:21:43;;;;;;;19.15;8.20;;;;;;;2.75;100.00;100416.98;1699189;84;20933;-72
2022/10/08 03:24:11;;;;;;;19.55;7.70;;;;;;;2.74;100.00;100413.16;1699298;84;21167;-72
2022/10/08 03:26:38;;;;;;;22.98;8.30;;;;;;;2.73;100.00;100412.87;1699098;84;21008;-72
2022/10/08 03:29:06;;;;;;;19.65;8.88;;;;;;;2.71;100.00;100413.11;1699408;84;21499;-71
2022/10/08 03:31:33;;;;;;;26.48;9.03;;;;;;;2.71;100.00;100410.93;1699190;84;20936;-72
2022/10/08 03:34:00;;;;;;;19.00;7.90;;;;;;;2.70;100.00;100414.70;1699157;84;21009;-72
2022/10/08 03:36:27;;;;;;;21.12;8.25;;;;;;;2.68;100.00;100418.19;1699177;84;21151;-71
2022/10/08 03:38:54;;;;;;;15.72;7.78;;;;;;;2.66;100.00;100418.44;1679395;84;20984;-72
2022/10/08 03:41:21;;;;;;;20.05;7.75;;;;;;;2.64;100.00;100414.61;1699128;84;20928;-72
2022/10/08 03:43:48;;;;;;;18.10;8.05;;;;;;;2.61;100.00;100415.09;1699332;84;21130;-72
2022/10/08 03:46:15;;;;;;;18.35;7.72;;;;;;;2.61;100.00;100416.98;1699593;84;21428;-72
2022/10/08 03:48:43;;;;;;;19.02;7.40;;;;;;;2.62;100.00;100417.27;1699266;84;21253;-71
2022/10/08 03:51:13;;;;;;;15.10;6.53;;;;;;;2.62;100.00;100415.39;1679203;84;20940;-71
2022/10/08 03:53:42;;;;;;;18.90;7.28;;;;;;;2.61;100.00;100414.27;1699360;84;20954;-72
2022/10/08 03:56:12;;;;;;;14.25;7.00;;;;;;;2.58;100.00;100414.75;1695451;84;21571;-72
2022/10/08 03:58:39;;;;;;;16.75;6.42;;;;;;;2.57;100.00;100411.22;1694439;84;21512;-77
2022/10/08 04:01:11;;;;;;;18.75;7.20;;;;;;;2.57;100.00;100415.28;1694666;84;21065;-77
2022/10/08 04:03:38;;;;;;;;;;;;;;;2.56;100.00;100409.58;1698358;84;20984;-76
2022/10/08 04:06:05;;;;;;;20.52;6.95;;;;;;;2.53;100.00;100408.70;1661576;86;20432;-83
2022/10/08 04:08:34;;;;;;;17.50;7.12;;;;;;;2.50;100.00;100406.48;1661314;85;20953;-74
2022/10/08 04:11:05;;;;;;;15.50;7.10;;;;;;;2.50;100.00;100403.77;1633594;86;21028;-71
2022/10/08 04:13:32;;;;;;;15.40;6.62;;;;;;;2.50;100.00;100407.01;1707727;83;22301;-72
2022/10/08 04:16:03;;;;;;;14.53;6.72;;;;;;;2.50;100.00;100406.48;1713450;83;21577;-75
2022/10/08 04:18:29;;;;;;;15.50;6.90;;;;;;;2.51;100.00;100414.90;1701436;83;21496;-70
2022/10/08 04:20:58;;;;;;;17.12;7.28;;;;;;;2.52;100.00;100410.30;1661124;86;20980;-71
2022/10/08 04:23:25;;;;;;;17.48;7.28;;;;;;;2.53;100.00;100410.59;1694767;84;21103;-74
2022/10/08 04:25:52;;;;;;;19.60;7.00;;;;;;;2.54;100.00;100407.64;1694752;84;21050;-77
2022/10/08 04:28:19;;;;;;;18.87;7.60;;;;;;;2.57;100.00;100407.16;1692592;83;21038;-84
2022/10/08 04:31:01;;;;;;;22.93;9.28;;;;;;;2.59;100.00;100408.27;1699996;83;21042;-80
2022/10/08 04:33:28;;;;;;;26.17;8.25;;;;;;;2.61;100.00;100405.61;1679999;84;21075;-75
2022/10/08 04:35:55;;;;;;;15.90;8.10;;;;;;;2.64;100.00;100407.83;1666574;86;21100;-74
2022/10/08 04:38:22;;;;;;;21.77;8.75;;;;;;;2.68;100.00;100403.28;1666828;86;21768;-76
2022/10/08 04:41:12;;;;;;;16.42;8.05;;;;;;;2.70;100.00;100401.15;1666585;86;21006;-77
2022/10/08 04:43:39;;;;;;;18.48;7.97;;;;;;;2.72;100.00;100399.02;1666598;86;21016;-77
2022/10/08 04:46:08;;;;;;;24.85;9.40;;;;;;;2.76;100.00;100402.89;1666676;86;21067;-74
2022/10/08 04:48:35;;;;;;;19.42;9.18;;;;;;;2.78;100.00;100402.11;1666654;86;21024;-75
2022/10/08 04:51:03;;;;;;;32.73;9.68;;;;;;;2.84;100.00;100410.63;1666912;86;21804;-78
2022/10/08 04:53:30;;;;;;;22.37;10.82;;;;;;;2.90;100.00;100408.27;1666641;86;21496;-76
2022/10/08 04:55:56;;;;;;;28.27;11.83;;;;;;;2.95;100.00;100407.83;1670089;86;20981;-73
2022/10/08 04:58:24;;;;;;;33.55;13.90;;;;;;;3.01;100.00;100410.09;1671035;86;20957;-76
2022/10/08 05:00:51;;;;;;;40.17;14.70;;;;;;;3.08;100.00;100409.41;1671014;85;21059;-73
2022/10/08 05:03:18;;;;;;;41.88;15.85;;;;;;;3.26;100.00;100405.09;1671057;85;21030;-74
2022/10/08 05:05:45;;;;;;;55.23;17.90;;;;;;;3.26;100.00;100405.09;1675280;84;21567;-74
2022/10/08 05:08:12;;;;;;;40.17;16.90;;;;;;;3.48;100.00;100409.22;1700783;83;20992;-74
2022/10/08 05:10:47;;;;;;;48.83;17.57;;;;;;;3.48;100.00;100409.22;1700575;84;20869;-75
2022/10/08 05:13:15;;;;;;;49.85;17.77;;;;;;;3.59;100.00;100412.91;1700641;84;21598;-72
2022/10/08 05:15:42;;;;;;;48.17;18.10;;;;;;;3.72;100.00;100411.20;1700623;84;21169;-74
2022/10/08 05:18:10;;;;;;;51.80;17.35;;;;;;;3.85;100.00;100405.95;1666945;86;20944;-73
2022/10/08 05:20:38;;;;;;;47.27;17.82;;;;;;;3.97;100.00;100408.85;1700655;83;20985;-75
2022/10/08 05:23:04;;;;;;;49.80;17.50;;;;;;;4.12;100.00;100412.81;1701195;84;20873;-74
2022/10/08 05:25:32;;;;;;;44.90;16.62;;;;;;;4.23;100.00;100409.16;1700380;84;20884;-81
2022/10/08 05:28:00;;;;;;;51.00;17.45;;;;;;;4.50;100.00;100413.28;1666738;86;21866;-87
2022/10/08 05:30:26;;;;;;;50.85;16.77;;;;;;;4.50;100.00;100413.28;1700930;83;21567;-89
2022/10/08 05:32:53;;;;;;;53.52;18.37;;;;;;;4.66;100.00;100408.27;1700820;84;20857;-89
2022/10/08 05:35:19;;;;;;;43.25;16.05;;;;;;;5.02;100.00;100409.99;1699604;84;21004;-80
2022/10/08 05:37:47;;;;;;;33.67;15.08;;;;;;;5.18;100.00;100407.16;1699121;84;21527;-88
2022/10/08 05:40:14;;;;;;;33.53;12.85;;;;;;;5.18;100.00;100407.16;1698576;84;21112;-91
2022/10/08 05:42:41;;;;;;;30.57;10.58;;;;;;;5.58;100.00;100402.53;1700245;84;21483;-83
2022/10/08 05:45:10;;;;;;;26.80;11.28;;;;;;;5.58;100.00;100402.53;1700820;84;20976;-89
2022/10/08 05:47:38;;;;;;;24.37;10.10;;;;;;;5.82;100.00;100405.66;1700591;84;21052;-82
2022/10/08 05:50:05;;;;;;;23.80;9.48;;;;;;;6.03;100.00;100397.09;1664322;86;20940;-82
2022/10/08 05:52:32;;;;;;;27.67;9.90;;;;;;;6.23;100.00;100402.64;1700948;83;21147;-88
2022/10/08 05:55:01;;;;;;;26.10;9.78;;;;;;;6.44;100.00;100398.60;1699585;83;20968;-81
2022/10/08 05:57:28;;;;;;;20.52;10.00;;;;;;;6.66;100.00;100400.59;1700705;84;20985;-80
2022/10/08 05:59:54;;;;;;;24.87;10.50;;;;;;;6.85;100.00;100398.17;1700827;84;20968;-75
2022/10/08 06:02:21;;;;;;;23.32;10.43;;;;;;;7.04;100.00;100399.27;1666917;85;21462;-76
2022/10/08 06:04:49;;;;;;;19.98;9.68;;;;;;;7.21;100.00;100392.17;1700603;84;21555;-75
2022/10/08 06:07:15;;;;;;;22.35;9.88;;;;;;;7.41;100.00;100394.91;1700547;84;20964;-75
2022/10/08 06:09:43;;;;;;;24.25;9.15;;;;;;;7.58;100.00;100392.68;1700693;84;21620;-76
2022/10/08 06:12:12;;;;;;;25.88;10.25;;;;;;;7.77;100.00;100397.58;1700615;84;20916;-75
2022/10/08 06:14:41;;;;;;;21.85;9.80;;;;;;;7.95;100.00;100387.42;1699494;84;21436;-82
2022/10/08 06:17:07;;;;;;;24.55;12.80;;;;;;;8.11;100.00;100386.80;1700425;83;21122;-84
2022/10/08 06:19:36;;;;;;;28.10;12.73;;;;;;;8.26;100.00;100388.11;1699795;84;20849;-82
2022/10/08 06:22:03;;;;;;;27.75;12.13;;;;;;;8.41;100.00;100385.89;1699460;83;21984;-81
2022/10/08 06:24:30;;;;;;;28.75;10.60;;;;;;;8.56;100.00;100385.27;1699276;84;21038;-81
2022/10/08 06:26:57;;;;;;;29.45;14.07;;;;;;;8.73;100.00;100388.16;1699151;84;21042;-78
2022/10/08 06:29:24;;;;;;;35.58;15.10;;;;;;;8.88;100.00;100383.41;1699538;84;21554;-77
2022/10/08 06:31:50;;;;;;;30.50;14.63;;;;;;;9.05;100.00;100380.27;1700182;84;21000;-78
2022/10/08 06:34:18;;;;;;;25.12;13.35;;;;;;;9.22;100.00;100383.43;1700241;84;21296;-78
2022/10/08 06:36:45;;;;;;;29.30;11.53;;;;;;;9.37;100.00;100372.05;1700210;83;21074;-78
2022/10/08 06:39:13;;;;;;;20.92;10.18;;;;;;;9.51;100.00;100377.13;1700720;84;20893;-73
2022/10/08 06:41:42;;;;;;;16.02;9.30;;;;;;;9.66;100.00;100370.13;1680076;84;20893;-76
2022/10/08 06:44:12;;;;;;;47.55;28.30;;;;;;;9.91;100.00;100374.50;1700541;84;21551;-78
2022/10/08 06:46:38;;;;;;;31.10;18.48;;;;;;;10.43;100.00;100376.36;1700652;84;20967;-87
2022/10/08 06:49:06;;;;;;;23.47;12.18;;;;;;;11.15;100.00;100374.19;1700655;84;21547;-86
2022/10/08 06:51:33;;;;;;;21.42;9.08;;;;;;;11.92;100.00;100363.23;1700668;84;20984;-82
2022/10/08 06:53:59;;;;;;;20.77;8.08;;;;;;;12.71;100.00;100367.89;1666716;86;21566;-82
2022/10/08 06:56:26;;;;;;;17.05;7.05;;;;;;;13.42;100.00;100365.60;1650302;86;20999;-73
2022/10/08 06:58:53;;;;;;;11.03;6.42;;;;;;;14.04;100.00;100358.68;1647964;87;20945;-76
2022/10/08 07:01:23;;;;;;;13.65;7.05;;;;;;;14.60;96.48;100357.05;1647802;87;21013;-77
2022/10/08 07:03:53;;;;;;;13.10;8.03;;;;;;;15.01;92.65;100357.98;1664799;86;21000;-75
2022/10/08 07:06:20;;;;;;;16.30;10.10;;;;;;;15.32;88.62;100356.95;1664768;86;21216;-76
2022/10/08 07:08:54;;;;;;;15.90;9.25;;;;;;;15.52;86.70;100355.70;1660937;86;21008;-76
2022/10/08 07:11:21;;;;;;;17.45;8.10;;;;;;;15.82;84.60;100353.02;1658716;85;21476;-75
2022/10/08 07:13:48;;;;;;;11.18;6.92;;;;;;;16.01;82.16;100348.47;1648110;87;21515;-75
2022/10/08 07:16:18;;;;;;;13.32;6.55;;;;;;;16.16;79.04;100344.56;1648093;87;20901;-75
2022/10/08 07:18:46;;;;;;;11.65;5.62;;;;;;;16.27;79.73;100345.55;1648146;87;21242;-75
2022/10/08 07:21:14;;;;;;;17.50;6.40;;;;;;;16.52;79.41;100344.58;1648392;87;20913;-76
2022/10/08 07:23:41;;;;;;;7.83;4.62;;;;;;;16.87;78.32;100336.02;1664883;86;20889;-75
2022/10/08 07:26:20;;;;;;;8.20;3.40;;;;;;;17.09;70.75;100339.83;1648155;87;20952;-74
2022/10/08 07:28:55;;;;;;;11.48;4.22;;;;;;;17.08;69.03;100336.25;1626284;87;21023;-76
2022/10/08 07:31:28;;;;;;;9.08;4.35;;;;;;;17.16;68.53;100329.81;1648121;87;21805;-75
2022/10/08 07:33:56;;;;;;;11.93;4.45;;;;;;;17.28;68.21;100325.46;1648243;87;20905;-75
2022/10/08 07:36:23;;;;;;;8.78;3.75;;;;;;;17.47;65.80;100321.56;1648120;87;20949;-74
2022/10/08 07:38:56;;;;;;;7.53;3.35;;;;;;;17.61;64.95;100319.28;1639112;85;20961;-74
2022/10/08 07:41:22;;;;;;;11.83;2.90;;;;;;;17.79;65.15;100326.29;1622347;86;21011;-74
2022/10/08 07:43:51;;;;;;;11.22;3.33;;;;;;;17.95;62.04;100322.80;1663405;86;21546;-75
2022/10/08 07:46:18;;;;;;;10.82;4.87;;;;;;;17.92;62.06;100313.20;1647044;87;20916;-75
2022/10/08 07:48:44;;;;;;;13.95;3.85;;;;;;;18.02;62.30;100309.15;1648010;87;20984;-75
2022/10/08 07:51:18;;;;;;;9.85;2.87;;;;;;;18.25;59.84;100310.31;1665024;86;20886;-76
2022/10/08 07:53:45;;;;;;;9.00;3.30;;;;;;;18.28;58.89;100309.61;1647976;87;20948;-75
2022/10/08 07:56:13;;;;;;;10.40;3.15;;;;;;;18.35;59.89;100305.67;1660059;85;21139;-75
2022/10/08 07:58:40;;;;;;;7.30;2.52;;;;;;;18.66;59.13;100308.39;1672309;85;20983;-76
2022/10/08 08:01:11;;;;;;;5.37;2.40;;;;;;;18.82;56.94;100304.30;1670603;85;20951;-75
2022/10/08 08:03:38;;;;;;;3.75;2.35;;;;;;;18.78;56.99;100297.24;1711449;83;21542;-75
2022/10/08 08:06:11;;;;;;;11.80;3.10;;;;;;;18.96;57.11;100297.77;1711140;83;20924;-75
2022/10/08 08:08:40;;;;;;;6.72;3.30;;;;;;;19.14;55.81;100298.47;1710829;84;21767;-75
2022/10/08 08:11:09;;;;;;;9.03;3.10;;;;;;;19.29;56.45;100290.52;1711128;84;20975;-75
2022/10/08 08:13:38;;;;;;;11.20;3.40;;;;;;;19.46;55.46;100290.99;1711199;84;21022;-75
2022/10/08 08:16:10;;;;;;;8.98;3.20;;;;;;;19.54;55.78;100286.45;1711129;83;20920;-75
2022/10/08 08:18:40;;;;;;;7.03;3.20;;;;;;;19.44;55.40;100284.16;1711298;84;20987;-75
2022/10/08 08:21:12;;;;;;;5.97;2.92;;;;;;;19.40;55.92;100284.07;1711141;83;21168;-75
2022/10/08 08:23:41;;;;;;;6.67;2.60;;;;;;;19.46;55.07;100277.66;1711308;83;21567;-76
2022/10/08 08:26:11;;;;;;;8.35;3.27;;;;;;;19.56;54.60;100278.55;1711154;84;20940;-76
2022/10/08 08:28:37;;;;;;;4.55;2.50;;;;;;;19.72;54.06;100269.59;1711386;83;21522;-75
2022/10/08 08:31:15;;;;;;;5.47;2.45;;;;;;;19.83;54.25;100273.23;1711242;83;21558;-75
2022/10/08 08:33:49;;;;;;;5.00;2.25;;;;;;;19.96;54.85;100264.41;1711202;83;21475;-75
2022/10/08 08:36:17;;;;;;;7.55;2.55;;;;;;;20.16;52.55;100265.28;1711082;84;21007;-74
2022/10/08 08:38:45;;;;;;;11.28;3.02;;;;;;;20.37;51.56;100256.57;1711185;84;21427;-74
2022/10/08 08:42:03;;;;;;;7.72;2.25;;;;;;;20.52;50.57;100261.33;1711387;83;20900;-74
2022/10/08 08:44:39;;;;;;;12.68;3.72;;;;;;;20.58;51.50;100261.26;1705922;83;20940;-74
2022/10/08 08:47:22;;;;;;;5.83;2.25;;;;;;;20.80;50.15;100255.52;1704334;84;21741;-74
2022/10/08 08:50:10;;;;;;;6.12;2.30;;;;;;;20.97;50.36;100254.27;1703975;83;20896;-75
2022/10/08 08:52:40;;;;;;;4.83;2.55;;;;;;;21.17;49.11;100250.28;1689472;84;20932;-75
2022/10/08 08:55:16;;;;;;;10.10;4.42;;;;;;;21.34;48.16;100247.05;1704055;83;21008;-75
2022/10/08 08:57:56;;;;;;;8.80;2.72;;;;;;;21.28;47.50;100250.52;1714067;83;20908;-75
2022/10/08 09:00:26;;;;;;;9.93;2.80;;;;;;;21.23;47.69;100243.83;1714207;82;22277;-75
2022/10/08 09:03:00;;;;;;;4.90;1.90;;;;;;;21.41;47.85;100245.75;1714410;83;20896;-75
2022/10/08 09:05:30;;;;;;;9.45;4.67;;;;;;;21.59;47.83;100240.47;1714225;82;20983;-75
2022/10/08 09:08:07;;;;;;;4.55;1.90;;;;;;;21.51;46.22;100239.33;1714557;82;20947;-75
2022/10/08 09:10:44;;;;;;;10.88;5.30;;;;;;;21.50;46.85;100244.11;1714324;82;21054;-75
2022/10/08 09:13:20;;;;;;;11.63;3.10;;;;;;;21.61;45.20;100238.70;1714255;83;21467;-75
2022/10/08 09:15:47;;;;;;;7.95;2.95;;;;;;;21.57;45.51;100231.66;1714171;83;21011;-74
2022/10/08 09:18:14;;;;;;;7.70;2.50;;;;;;;21.56;46.07;100228.65;1714184;82;21416;-74
2022/10/08 09:20:41;;;;;;;5.45;1.98;;;;;;;21.61;46.46;100230.32;1714156;83;21458;-75
2022/10/08 09:23:13;;;;;;;6.30;2.35;;;;;;;21.74;46.64;100228.36;1713749;82;20996;-75
2022/10/08 09:25:40;;;;;;;7.08;2.45;;;;;;;21.89;45.17;100221.60;1707409;83;21186;-74
2022/10/08 09:28:07;;;;;;;4.42;2.10;;;;;;;22.02;41.62;100211.82;1713958;83;20947;-76
2022/10/08 09:30:43;;;;;;;4.00;2.00;;;;;;;21.89;40.96;100223.00;1714199;83;20900;-77
2022/10/08 09:33:18;;;;;;;6.72;1.95;;;;;;;21.82;41.78;100215.90;1714095;83;20939;-76
2022/10/08 09:35:49;;;;;;;8.53;1.85;;;;;;;22.07;42.24;100219.30;1714585;82;20864;-76
2022/10/08 09:38:36;;;;;;;5.22;2.12;;;;;;;22.06;42.65;100215.48;1677548;84;21329;-75
2022/10/08 09:41:06;;;;;;;5.95;1.55;;;;;;;22.06;43.19;100212.68;1664103;86;20980;-76
2022/10/08 09:43:34;;;;;;;5.67;1.85;;;;;;;22.09;40.64;100207.73;1663911;86;21106;-78
2022/10/08 09:46:10;;;;;;;5.15;1.90;;;;;;;22.05;41.07;100211.06;1664084;86;21025;-81
2022/10/08 09:48:36;;;;;;;3.15;1.77;;;;;;;22.12;40.07;100198.59;1664030;86;21018;-83
2022/10/08 09:51:06;;;;;;;7.30;2.15;;;;;;;22.19;40.13;100195.09;1664464;85;21136;-80
2022/10/08 09:53:50;;;;;;;5.45;2.08;;;;;;;22.24;40.79;100191.38;1648628;85;20966;-77
2022/10/08 09:56:28;;;;;;;5.50;2.12;;;;;;;22.24;40.14;100196.97;1654858;86;21004;-80
2022/10/08 09:59:01;;;;;;;6.05;2.05;;;;;;;22.00;40.97;100193.19;1648046;87;21088;-79
2022/10/08 10:01:30;;;;;;;4.95;2.27;;;;;;;21.98;40.50;100183.78;1648729;85;20992;-78
2022/10/08 10:03:59;;;;;;;9.43;2.27;;;;;;;21.91;40.17;100173.12;1664801;85;21665;-79
2022/10/08 10:06:38;;;;;;;4.50;2.15;;;;;;;21.92;40.36;100178.92;1647900;87;20909;-79
2022/10/08 10:09:32;;;;;;;5.60;2.10;;;;;;;22.10;39.42;100178.59;1647991;86;20913;-78
2022/10/08 10:12:03;;;;;;;9.70;3.12;;;;;;;22.20;39.47;100180.73;1649084;86;20949;-78
2022/10/08 10:14:36;;;;;;;8.73;2.40;;;;;;;22.32;39.05;100172.11;1649223;86;21480;-77
2022/10/08 10:17:07;;;;;;;7.65;2.55;;;;;;;22.39;40.23;100170.80;1642765;86;21932;-78
2022/10/08 10:19:52;;;;;;;6.83;2.33;;;;;;;22.52;39.35;100164.38;1644045;86;20918;-78
2022/10/08 10:22:27;;;;;;;5.80;2.10;;;;;;;22.62;39.15;100161.45;1643315;85;20998;-80
2022/10/08 10:25:25;;;;;;;5.17;2.10;;;;;;;22.67;38.13;100157.73;1637845;87;20968;-81
2022/10/08 10:28:00;;;;;;;5.20;2.22;;;;;;;22.81;38.21;100147.31;1620200;87;20953;-79
2022/10/08 10:30:27;;;;;;;6.47;3.37;;;;;;;23.01;37.56;100143.13;1619490;87;21747;-81
2022/10/08 10:33:05;;;;;;;8.40;4.80;;;;;;;23.09;37.61;100144.00;1618460;87;20992;-80
2022/10/08 10:35:32;;;;;;;7.33;4.35;;;;;;;23.27;37.86;100136.53;1618862;87;20953;-81
2022/10/08 10:38:15;;;;;;;4.92;2.27;;;;;;;23.48;37.08;100122.50;1618827;87;20922;-78
2022/10/08 10:40:51;;;;;;;49.77;33.20;;;;;;;23.46;37.02;100123.48;1640930;87;20881;-80
2022/10/08 10:43:44;;;;;;;10.25;6.47;;;;;;;23.33;36.24;100123.78;1623422;87;21152;-80
2022/10/08 10:46:20;;;;;;;6.62;2.50;;;;;;;23.24;35.30;100116.90;1637720;87;21023;-78
2022/10/08 10:48:48;;;;;;;13.20;7.03;;;;;;;23.08;37.10;100110.78;1637433;87;20983;-81
2022/10/08 10:51:29;;;;;;;105.95;58.85;;;;;;;23.16;35.12;100114.63;1627506;85;21007;-79
2022/10/08 10:54:42;;;;;;;5.75;3.17;;;;;;;23.14;35.49;100106.41;1665828;85;21582;-79
2022/10/08 10:57:20;;;;;;;4.90;2.20;;;;;;;23.26;35.17;100101.31;1641202;85;21166;-79
2022/10/08 11:00:04;;;;;;;4.83;2.20;;;;;;;22.97;34.89;100096.09;1691300;84;21034;-80
2022/10/08 11:02:49;;;;;;;4.90;2.33;;;;;;;22.80;34.87;100094.52;1695863;84;21067;-81
2022/10/08 11:05:26;;;;;;;4.95;2.42;;;;;;;22.90;35.47;100093.81;1670574;84;21034;-83
2022/10/08 11:08:29;;;;;;;4.37;2.27;;;;;;;22.84;34.62;100093.95;1699025;84;20933;-76
2022/10/08 11:11:19;;;;;;;5.17;2.13;;;;;;;22.81;34.27;100089.94;1700059;84;20924;-76
2022/10/08 11:14:03;;;;;;;102.45;65.80;;;;;;;22.76;34.94;100081.86;1703589;84;21582;-75
2022/10/08 11:16:56;;;;;;;12.53;4.97;;;;;;;23.01;35.13;100088.53;1699096;84;21568;-78
2022/10/08 11:19:59;;;;;;;9.98;5.20;;;;;;;23.11;34.10;100079.98;1665918;86;20913;-76
2022/10/08 11:22:49;;;;;;;10.93;6.45;;;;;;;23.07;34.06;100076.38;1700284;84;21079;-77
2022/10/08 11:25:41;;;;;;;6.05;2.70;;;;;;;23.27;34.89;100069.31;1700561;84;21139;-76
2022/10/08 11:28:49;;;;;;;36.42;21.60;;;;;;;23.53;33.54;100054.32;1700713;84;20948;-77
2022/10/08 11:31:36;;;;;;;7.85;5.17;;;;;;;23.71;32.36;100050.19;1701049;84;21396;-76
2022/10/08 11:34:03;;;;;;;9.13;5.87;;;;;;;23.96;32.65;100053.93;1700272;84;20980;-77
2022/10/08 11:36:51;;;;;;;18.42;8.40;;;;;;;24.10;30.44;100047.58;1700574;84;21397;-77
2022/10/08 11:39:50;;;;;;;8.83;3.62;;;;;;;23.86;31.84;100047.67;1700662;84;21521;-78
2022/10/08 11:42:47;;;;;;;5.58;3.00;;;;;;;23.77;32.84;100045.02;1700826;84;20944;-75